createdAt,value
2016-03-09T00:00:34.253Z,997.56
2016-03-09T00:01:34.256Z,997.54
2016-03-09T00:02:34.274Z,997.56
2016-03-09T00:03:34.276Z,997.54
2016-03-09T00:04:34.295Z,997.52
2016-03-09T00:05:34.313Z,997.53
2016-03-09T00:06:34.316Z,997.59
2016-03-09T00:07:34.318Z,997.5
2016-03-09T00:08:34.337Z,997.55
2016-03-09T00:09:34.340Z,997.54
2016-03-09T00:10:34.358Z,997.54
2016-03-09T00:11:34.360Z,997.55
2016-03-09T00:12:34.379Z,997.55
2016-03-09T00:13:34.397Z,997.51
2016-03-09T00:14:34.399Z,997.53
2016-03-09T00:15:34.418Z,997.51
2016-03-09T00:16:34.437Z,997.48
2016-03-09T00:17:34.439Z,997.5
2016-03-09T00:18:34.442Z,997.48
2016-03-09T00:19:34.460Z,997.49
2016-03-09T00:20:34.462Z,997.48
2016-03-09T00:21:34.481Z,997.51
2016-03-09T00:22:34.499Z,997.45
2016-03-09T00:23:34.502Z,997.5
2016-03-09T00:24:34.505Z,997.47
2016-03-09T00:25:34.523Z,997.44
2016-03-09T00:26:34.542Z,997.49
2016-03-09T00:27:34.544Z,997.42
2016-03-09T00:28:34.547Z,997.46
2016-03-09T00:29:34.565Z,997.43
2016-03-09T00:30:34.583Z,997.42
2016-03-09T00:31:34.592Z,997.39
2016-03-09T00:32:34.595Z,997.39
2016-03-09T00:33:34.614Z,997.37
2016-03-09T00:34:34.616Z,997.37
2016-03-09T00:35:34.634Z,997.36
2016-03-09T00:36:34.637Z,997.37
2016-03-09T00:37:34.655Z,997.33
2016-03-09T00:38:34.658Z,997.34
2016-03-09T00:39:34.676Z,997.36
2016-03-09T00:40:34.678Z,997.34
2016-03-09T00:41:34.697Z,997.35
2016-03-09T00:42:34.716Z,997.32
2016-03-09T00:43:34.718Z,997.36
2016-03-09T00:44:34.721Z,997.32
2016-03-09T00:45:34.739Z,997.37
2016-03-09T00:46:34.741Z,997.35
2016-03-09T00:47:34.760Z,997.33
2016-03-09T00:48:34.762Z,997.33
2016-03-09T00:49:34.782Z,997.3
2016-03-09T00:50:34.784Z,997.25
2016-03-09T00:51:34.833Z,997.23
2016-03-09T00:52:34.820Z,997.28
2016-03-09T00:53:34.823Z,997.25
2016-03-09T00:54:34.841Z,997.25
2016-03-09T00:55:34.844Z,997.23
2016-03-09T00:56:34.862Z,997.21
2016-03-09T00:57:34.865Z,997.2
2016-03-09T00:58:34.884Z,997.2
2016-03-09T00:59:34.886Z,997.19
2016-03-09T01:00:34.904Z,997.19
2016-03-09T01:01:34.923Z,997.17
2016-03-09T01:02:34.925Z,997.14
2016-03-09T01:03:34.928Z,997.11
2016-03-09T01:04:34.947Z,997.12
2016-03-09T01:05:34.950Z,997.07
2016-03-09T01:06:34.976Z,997.09
2016-03-09T01:07:34.979Z,997.06
2016-03-09T01:08:34.997Z,997.08
2016-03-09T01:09:35.000Z,997
2016-03-09T01:10:35.003Z,996.98
2016-03-09T01:11:35.021Z,997
2016-03-09T01:12:35.023Z,996.94
2016-03-09T01:13:35.042Z,996.96
2016-03-09T01:14:35.060Z,996.94
2016-03-09T01:15:35.062Z,996.9
2016-03-09T01:16:35.065Z,996.92
2016-03-09T01:17:35.084Z,996.94
2016-03-09T01:18:35.086Z,996.89
2016-03-09T01:19:35.105Z,996.9
2016-03-09T01:20:35.107Z,996.88
2016-03-09T01:21:35.126Z,996.82
2016-03-09T01:22:35.128Z,996.84
2016-03-09T01:23:35.147Z,996.83
2016-03-09T01:24:35.166Z,996.81
2016-03-09T01:25:35.183Z,996.78
2016-03-09T01:26:35.186Z,996.82
2016-03-09T01:27:35.189Z,996.79
2016-03-09T01:28:35.207Z,996.8
2016-03-09T01:29:35.210Z,996.72
2016-03-09T01:30:35.227Z,996.77
2016-03-09T01:31:35.231Z,996.75
2016-03-09T01:32:35.249Z,996.72
2016-03-09T01:33:35.252Z,996.68
2016-03-09T01:34:35.271Z,996.71
2016-03-09T01:35:35.273Z,996.67
2016-03-09T01:36:35.291Z,996.61
2016-03-09T01:37:35.294Z,996.56
2016-03-09T01:38:35.312Z,996.56
2016-03-09T01:39:35.314Z,996.53
2016-03-09T01:40:35.333Z,996.54
2016-03-09T01:41:35.336Z,996.51
2016-03-09T01:42:35.354Z,996.53
2016-03-09T01:43:35.357Z,996.5
2016-03-09T01:44:35.375Z,996.47
2016-03-09T01:45:35.393Z,996.51
2016-03-09T01:46:35.395Z,996.5
2016-03-09T01:47:35.415Z,996.51
2016-03-09T01:48:35.417Z,996.46
2016-03-09T01:49:35.435Z,996.49
2016-03-09T01:50:35.438Z,996.48
2016-03-09T01:51:35.456Z,996.5
2016-03-09T01:52:35.459Z,996.46
2016-03-09T01:53:35.478Z,996.44
2016-03-09T01:54:35.480Z,996.39
2016-03-09T01:55:35.499Z,996.42
2016-03-09T01:56:35.501Z,996.4
2016-03-09T01:57:35.520Z,996.37
2016-03-09T01:58:35.543Z,996.37
2016-03-09T01:59:35.524Z,996.27
2016-03-09T02:00:35.558Z,996.3
2016-03-09T02:01:35.540Z,996.29
2016-03-09T02:02:35.559Z,996.26
2016-03-09T02:03:35.561Z,996.2
2016-03-09T02:04:35.579Z,996.22
2016-03-09T02:05:35.582Z,996.22
2016-03-09T02:06:35.589Z,996.22
2016-03-09T02:07:35.609Z,996.23
2016-03-09T02:08:35.611Z,996.21
2016-03-09T02:09:35.635Z,996.18
2016-03-09T02:10:35.636Z,996.21
2016-03-09T02:11:35.673Z,996.19
2016-03-09T02:12:35.658Z,996.15
2016-03-09T02:13:35.680Z,996.11
2016-03-09T02:14:35.683Z,996.15
2016-03-09T02:15:35.702Z,996.13
2016-03-09T02:16:35.704Z,996.09
2016-03-09T02:17:35.724Z,996.08
2016-03-09T02:18:35.726Z,996.03
2016-03-09T02:19:35.744Z,996.03
2016-03-09T02:20:35.746Z,996.04
2016-03-09T02:21:35.765Z,995.96
2016-03-09T02:22:35.768Z,995.96
2016-03-09T02:23:35.770Z,995.99
2016-03-09T02:24:35.788Z,995.92
2016-03-09T02:25:35.838Z,995.91
2016-03-09T02:26:35.809Z,995.92
2016-03-09T02:27:35.828Z,995.94
2016-03-09T02:28:35.831Z,995.89
2016-03-09T02:29:35.833Z,995.85
2016-03-09T02:30:35.851Z,995.87
2016-03-09T02:31:35.870Z,995.84
2016-03-09T02:32:35.873Z,995.84
2016-03-09T02:33:35.891Z,995.81
2016-03-09T02:34:35.893Z,995.81
2016-03-09T02:35:35.912Z,995.77
2016-03-09T02:36:35.914Z,995.77
2016-03-09T02:37:35.933Z,995.77
2016-03-09T02:38:35.936Z,995.79
2016-03-09T02:39:35.953Z,995.79
2016-03-09T02:40:35.956Z,995.75
2016-03-09T02:41:35.974Z,995.73
2016-03-09T02:42:35.978Z,995.75
2016-03-09T02:43:35.996Z,995.76
2016-03-09T02:44:35.998Z,995.7
2016-03-09T02:45:36.017Z,995.69
2016-03-09T02:46:36.019Z,995.64
2016-03-09T02:47:36.038Z,995.67
2016-03-09T02:48:36.041Z,995.65
2016-03-09T02:49:36.059Z,995.63
2016-03-09T02:50:36.062Z,995.61
2016-03-09T02:51:36.079Z,995.66
2016-03-09T02:52:36.083Z,995.66
2016-03-09T02:53:36.101Z,995.61
2016-03-09T02:54:36.103Z,995.61
2016-03-09T02:55:36.121Z,995.59
2016-03-09T02:56:36.124Z,995.59
2016-03-09T02:57:36.142Z,995.56
2016-03-09T02:58:36.146Z,995.57
2016-03-09T02:59:36.164Z,995.59
2016-03-09T03:00:36.167Z,995.51
2016-03-09T03:01:36.184Z,995.53
2016-03-09T03:02:36.187Z,995.48
2016-03-09T03:03:36.206Z,995.5
2016-03-09T03:04:36.208Z,995.46
2016-03-09T03:05:36.211Z,995.49
2016-03-09T03:06:36.230Z,995.5
2016-03-09T03:07:36.247Z,995.51
2016-03-09T03:08:36.250Z,995.52
2016-03-09T03:09:36.269Z,995.48
2016-03-09T03:10:36.272Z,995.49
2016-03-09T03:11:36.289Z,995.52
2016-03-09T03:12:36.292Z,995.47
2016-03-09T03:13:36.311Z,995.46
2016-03-09T03:14:36.313Z,995.46
2016-03-09T03:15:36.332Z,995.41
2016-03-09T03:16:36.335Z,995.43
2016-03-09T03:17:36.338Z,995.42
2016-03-09T03:18:36.355Z,995.35
2016-03-09T03:19:36.374Z,995.42
2016-03-09T03:20:36.377Z,995.4
2016-03-09T03:21:36.395Z,995.42
2016-03-09T03:22:36.398Z,995.4
2016-03-09T03:23:36.416Z,995.38
2016-03-09T03:24:36.418Z,995.35
2016-03-09T03:25:36.437Z,995.37
2016-03-09T03:26:36.439Z,995.36
2016-03-09T03:27:36.458Z,995.31
2016-03-09T03:28:36.460Z,995.33
2016-03-09T03:29:36.478Z,995.26
2016-03-09T03:30:36.481Z,995.3
2016-03-09T03:31:36.500Z,995.29
2016-03-09T03:32:36.502Z,995.29
2016-03-09T03:33:36.521Z,995.31
2016-03-09T03:34:36.523Z,995.3
2016-03-09T03:35:36.526Z,995.28
2016-03-09T03:36:36.544Z,995.25
2016-03-09T03:37:36.563Z,995.18
2016-03-09T03:38:36.566Z,995.18
2016-03-09T03:39:36.568Z,995.14
2016-03-09T03:40:36.587Z,995.17
2016-03-09T03:41:36.605Z,995.14
2016-03-09T03:42:36.608Z,995.15
2016-03-09T03:43:36.625Z,995.13
2016-03-09T03:44:36.628Z,995.17
2016-03-09T03:45:36.647Z,995.18
2016-03-09T03:46:36.649Z,995.12
2016-03-09T03:47:36.668Z,995.16
2016-03-09T03:48:36.671Z,995.17
2016-03-09T03:49:36.673Z,995.13
2016-03-09T03:50:36.692Z,995.16
2016-03-09T03:51:36.710Z,995.15
2016-03-09T03:52:36.713Z,995.12
2016-03-09T03:53:36.731Z,995.15
2016-03-09T03:54:36.734Z,995.12
2016-03-09T03:55:36.737Z,995.1
2016-03-09T03:56:36.754Z,995.11
2016-03-09T03:57:36.773Z,995.04
2016-03-09T03:58:36.776Z,995.03
2016-03-09T03:59:36.794Z,995
2016-03-09T04:00:36.796Z,995.05
2016-03-09T04:01:36.815Z,995.01
2016-03-09T04:02:36.817Z,995.11
2016-03-09T04:03:36.836Z,995.07
2016-03-09T04:04:36.838Z,995.09
2016-03-09T04:05:36.842Z,995.1
2016-03-09T04:06:36.859Z,995.09
2016-03-09T04:07:36.878Z,995.09
2016-03-09T04:08:36.911Z,995.08
2016-03-09T04:09:36.899Z,995.12
2016-03-09T04:10:36.902Z,995.05
2016-03-09T04:11:36.919Z,995.11
2016-03-09T04:12:36.923Z,995.03
2016-03-09T04:13:36.941Z,995.07
2016-03-09T04:14:36.943Z,995.05
2016-03-09T04:15:36.961Z,995.02
2016-03-09T04:16:36.964Z,994.99
2016-03-09T04:17:36.983Z,995.01
2016-03-09T04:18:36.985Z,995
2016-03-09T04:19:37.004Z,995
2016-03-09T04:20:37.007Z,995.01
2016-03-09T04:21:37.024Z,995.02
2016-03-09T04:22:37.028Z,995.02
2016-03-09T04:23:37.030Z,995.09
2016-03-09T04:24:37.049Z,995.01
2016-03-09T04:25:37.051Z,995.04
2016-03-09T04:26:37.070Z,994.99
2016-03-09T04:27:37.119Z,995
2016-03-09T04:28:37.083Z,995.03
2016-03-09T04:29:37.073Z,995.02
2016-03-09T04:30:37.080Z,994.97
2016-03-09T04:31:37.086Z,995.01
2016-03-09T04:32:37.077Z,994.99
2016-03-09T04:33:37.073Z,994.94
2016-03-09T04:34:37.087Z,994.9
2016-03-09T04:35:37.086Z,994.96
2016-03-09T04:36:37.100Z,994.93
2016-03-09T04:37:37.114Z,994.91
2016-03-09T04:38:37.114Z,994.88
2016-03-09T04:39:37.115Z,994.86
2016-03-09T04:40:37.132Z,994.82
2016-03-09T04:41:37.134Z,994.87
2016-03-09T04:42:37.151Z,994.84
2016-03-09T04:43:37.152Z,994.81
2016-03-09T04:44:37.169Z,994.78
2016-03-09T04:45:37.187Z,994.78
2016-03-09T04:46:37.189Z,994.78
2016-03-09T04:47:37.191Z,994.75
2016-03-09T04:48:37.207Z,994.77
2016-03-09T04:49:37.210Z,994.73
2016-03-09T04:50:37.228Z,994.77
2016-03-09T04:51:37.231Z,994.73
2016-03-09T04:52:37.249Z,994.7
2016-03-09T04:53:37.251Z,994.7
2016-03-09T04:54:37.269Z,994.67
2016-03-09T04:55:37.272Z,994.64
2016-03-09T04:56:37.291Z,994.66
2016-03-09T04:57:37.293Z,994.64
2016-03-09T04:58:37.296Z,994.6
2016-03-09T04:59:37.314Z,994.57
2016-03-09T05:00:37.318Z,994.58
2016-03-09T05:01:37.335Z,994.55
2016-03-09T05:02:37.354Z,994.56
2016-03-09T05:03:37.357Z,994.58
2016-03-09T05:04:37.359Z,994.53
2016-03-09T05:05:37.377Z,994.55
2016-03-09T05:06:37.385Z,994.55
2016-03-09T05:07:37.404Z,994.53
2016-03-09T05:08:37.407Z,994.56
2016-03-09T05:09:37.409Z,994.56
2016-03-09T05:10:37.429Z,994.54
2016-03-09T05:11:37.431Z,994.52
2016-03-09T05:12:37.449Z,994.48
2016-03-09T05:13:37.452Z,994.55
2016-03-09T05:14:37.470Z,994.48
2016-03-09T05:15:37.488Z,994.47
2016-03-09T05:16:37.490Z,994.47
2016-03-09T05:17:37.493Z,994.46
2016-03-09T05:18:37.512Z,994.47
2016-03-09T05:19:37.515Z,994.48
2016-03-09T05:20:37.533Z,994.49
2016-03-09T05:21:37.536Z,994.44
2016-03-09T05:22:37.554Z,994.43
2016-03-09T05:23:37.572Z,994.37
2016-03-09T05:24:37.575Z,994.46
2016-03-09T05:25:37.577Z,994.46
2016-03-09T05:26:37.596Z,994.39
2016-03-09T05:27:37.599Z,994.45
2016-03-09T05:28:37.617Z,994.42
2016-03-09T05:29:37.620Z,994.42
2016-03-09T05:30:37.623Z,994.42
2016-03-09T05:31:37.641Z,994.44
2016-03-09T05:32:37.644Z,994.4
2016-03-09T05:33:37.661Z,994.44
2016-03-09T05:34:37.664Z,994.46
2016-03-09T05:35:37.667Z,994.36
2016-03-09T05:36:37.685Z,994.41
2016-03-09T05:37:37.704Z,994.42
2016-03-09T05:38:37.706Z,994.37
2016-03-09T05:39:37.725Z,994.42
2016-03-09T05:40:37.728Z,994.37
2016-03-09T05:41:37.730Z,994.36
2016-03-09T05:42:37.749Z,994.34
2016-03-09T05:43:37.768Z,994.38
2016-03-09T05:44:37.770Z,994.35
2016-03-09T05:45:37.773Z,994.28
2016-03-09T05:46:37.790Z,994.27
2016-03-09T05:47:37.793Z,994.3
2016-03-09T05:48:37.811Z,994.29
2016-03-09T05:49:37.814Z,994.26
2016-03-09T05:50:37.833Z,994.29
2016-03-09T05:51:37.851Z,994.27
2016-03-09T05:52:37.853Z,994.23
2016-03-09T05:53:37.856Z,994.26
2016-03-09T05:54:37.875Z,994.2
2016-03-09T05:55:37.877Z,994.18
2016-03-09T05:56:37.895Z,994.19
2016-03-09T05:57:37.898Z,994.21
2016-03-09T05:58:37.917Z,994.14
2016-03-09T05:59:37.920Z,994.16
2016-03-09T06:00:37.939Z,994.14
2016-03-09T06:01:37.941Z,994.14
2016-03-09T06:02:37.958Z,994.14
2016-03-09T06:03:37.962Z,994.13
2016-03-09T06:04:37.981Z,994.1
2016-03-09T06:05:37.983Z,994.14
2016-03-09T06:06:38.001Z,994.17
2016-03-09T06:07:38.003Z,994.17
2016-03-09T06:08:38.022Z,994.13
2016-03-09T06:09:38.025Z,994.13
2016-03-09T06:10:38.044Z,994.08
2016-03-09T06:11:38.047Z,994.17
2016-03-09T06:12:38.064Z,994.13
2016-03-09T06:13:38.067Z,994.15
2016-03-09T06:14:38.085Z,994.16
2016-03-09T06:15:38.088Z,994.17
2016-03-09T06:16:38.106Z,994.21
2016-03-09T06:17:38.110Z,994.2
2016-03-09T06:18:38.127Z,994.2
2016-03-09T06:19:38.130Z,994.25
2016-03-09T06:20:38.149Z,994.2
2016-03-09T06:21:38.151Z,994.19
2016-03-09T06:22:38.154Z,994.19
2016-03-09T06:23:38.171Z,994.12
2016-03-09T06:24:38.174Z,994.15
2016-03-09T06:25:38.193Z,994.17
2016-03-09T06:26:38.196Z,994.13
2016-03-09T06:27:38.215Z,994.14
2016-03-09T06:28:38.217Z,994.14
2016-03-09T06:29:38.235Z,994.14
2016-03-09T06:30:38.253Z,994.19
2016-03-09T06:31:38.272Z,994.15
2016-03-09T06:32:38.258Z,994.13
2016-03-09T06:33:38.278Z,994.12
2016-03-09T06:34:38.281Z,994.18
2016-03-09T06:35:38.298Z,994.13
2016-03-09T06:36:38.317Z,994.16
2016-03-09T06:37:38.319Z,994.11
2016-03-09T06:38:38.322Z,994.16
2016-03-09T06:39:38.339Z,994.14
2016-03-09T06:40:38.358Z,994.17
2016-03-09T06:41:38.361Z,994.11
2016-03-09T06:42:38.364Z,994.08
2016-03-09T06:43:38.383Z,994.04
2016-03-09T06:44:38.400Z,994.1
2016-03-09T06:45:38.403Z,994.14
2016-03-09T06:46:38.421Z,994.11
2016-03-09T06:47:38.424Z,994.2
2016-03-09T06:48:38.442Z,994.1
2016-03-09T06:49:38.446Z,994.12
2016-03-09T06:50:38.464Z,994.1
2016-03-09T06:51:38.466Z,994.02
2016-03-09T06:52:38.485Z,994.07
2016-03-09T06:53:38.487Z,994.16
2016-03-09T06:54:38.505Z,994.12
2016-03-09T06:55:38.507Z,994.06
2016-03-09T06:56:38.526Z,994.12
2016-03-09T06:57:38.530Z,994.1
2016-03-09T06:58:38.548Z,994.13
2016-03-09T06:59:38.582Z,994.13
2016-03-09T07:00:38.568Z,994.13
2016-03-09T07:01:38.570Z,994.09
2016-03-09T07:02:38.589Z,994.12
2016-03-09T07:03:38.593Z,994.2
2016-03-09T07:04:38.611Z,994.14
2016-03-09T07:05:38.614Z,994.13
2016-03-09T07:06:38.631Z,994.08
2016-03-09T07:07:38.634Z,994.13
2016-03-09T07:08:38.652Z,994.11
2016-03-09T07:09:38.670Z,994.1
2016-03-09T07:10:38.674Z,994.12
2016-03-09T07:11:38.692Z,994.11
2016-03-09T07:12:38.695Z,994.08
2016-03-09T07:13:38.713Z,994.1
2016-03-09T07:14:38.716Z,994.14
2016-03-09T07:15:38.733Z,994.11
2016-03-09T07:16:38.752Z,994.15
2016-03-09T07:17:38.754Z,994.07
2016-03-09T07:18:38.774Z,994.12
2016-03-09T07:19:38.777Z,994.07
2016-03-09T07:20:38.794Z,994.08
2016-03-09T07:21:38.797Z,994.09
2016-03-09T07:22:38.815Z,994.06
2016-03-09T07:23:38.818Z,994.07
2016-03-09T07:24:38.835Z,994.1
2016-03-09T07:25:38.838Z,994.09
2016-03-09T07:26:38.858Z,994.1
2016-03-09T07:27:38.876Z,994.06
2016-03-09T07:28:38.879Z,994.16
2016-03-09T07:29:38.896Z,994.18
2016-03-09T07:30:38.899Z,994.13
2016-03-09T07:31:38.918Z,994.15
2016-03-09T07:32:38.920Z,994.1
2016-03-09T07:33:38.939Z,994.11
2016-03-09T07:34:38.942Z,994.17
2016-03-09T07:35:38.959Z,994.13
2016-03-09T07:36:38.978Z,994.17
2016-03-09T07:37:38.980Z,994.15
2016-03-09T07:38:38.998Z,994.22
2016-03-09T07:39:39.002Z,994.2
2016-03-09T07:40:39.020Z,994.2
2016-03-09T07:41:39.038Z,994.17
2016-03-09T07:42:39.041Z,994.13
2016-03-09T07:43:39.058Z,994.18
2016-03-09T07:44:39.062Z,994.18
2016-03-09T07:45:39.080Z,994.19
2016-03-09T07:46:39.083Z,994.19
2016-03-09T07:47:39.102Z,994.24
2016-03-09T07:48:39.104Z,994.21
2016-03-09T07:49:39.122Z,994.21
2016-03-09T07:50:39.141Z,994.2
2016-03-09T07:51:39.144Z,994.27
2016-03-09T07:52:39.161Z,994.26
2016-03-09T07:53:39.164Z,994.27
2016-03-09T07:54:39.182Z,994.27
2016-03-09T07:55:39.185Z,994.3
2016-03-09T07:56:39.204Z,994.25
2016-03-09T07:57:39.222Z,994.22
2016-03-09T07:58:39.224Z,994.27
2016-03-09T07:59:39.243Z,994.23
2016-03-09T08:00:39.261Z,994.21
2016-03-09T08:01:39.264Z,994.12
2016-03-09T08:02:39.282Z,994.14
2016-03-09T08:03:39.285Z,994.12
2016-03-09T08:04:39.303Z,994.09
2016-03-09T08:05:39.306Z,994.18
2016-03-09T08:06:39.324Z,994.13
2016-03-09T08:07:39.326Z,994.16
2016-03-09T08:08:39.345Z,994.14
2016-03-09T08:09:39.364Z,994.18
2016-03-09T08:10:39.366Z,994.16
2016-03-09T08:11:39.384Z,994.16
2016-03-09T08:12:39.403Z,994.13
2016-03-09T08:13:39.405Z,994.13
2016-03-09T08:14:39.424Z,994.14
2016-03-09T08:15:39.427Z,994.12
2016-03-09T08:16:39.445Z,994.13
2016-03-09T08:17:39.463Z,994.1
2016-03-09T08:18:39.466Z,994.13
2016-03-09T08:19:39.483Z,994.1
2016-03-09T08:20:39.486Z,994.03
2016-03-09T08:21:39.505Z,994.13
2016-03-09T08:22:39.524Z,994.16
2016-03-09T08:23:39.541Z,994.16
2016-03-09T08:24:39.544Z,994.11
2016-03-09T08:25:39.547Z,994.16
2016-03-09T08:26:39.581Z,994.14
2016-03-09T08:27:39.584Z,994.11
2016-03-09T08:28:39.587Z,994.14
2016-03-09T08:29:39.604Z,994.05
2016-03-09T08:30:39.607Z,994.06
2016-03-09T08:31:39.626Z,994.04
2016-03-09T08:32:39.644Z,994.03
2016-03-09T08:33:39.646Z,994.07
2016-03-09T08:34:39.665Z,994.03
2016-03-09T08:35:39.683Z,994.07
2016-03-09T08:36:39.686Z,994.04
2016-03-09T08:37:39.705Z,994.05
2016-03-09T08:38:39.723Z,994.04
2016-03-09T08:39:39.725Z,994.08
2016-03-09T08:40:39.744Z,994.05
2016-03-09T08:41:39.746Z,994.04
2016-03-09T08:42:39.765Z,993.99
2016-03-09T08:43:39.784Z,994.03
2016-03-09T08:44:39.786Z,994
2016-03-09T08:45:39.803Z,994.03
2016-03-09T08:46:40.103Z,994.03
2016-03-09T08:47:39.825Z,994.05
2016-03-09T08:48:39.844Z,993.98
2016-03-09T08:49:39.847Z,993.99
2016-03-09T08:50:39.864Z,993.97
2016-03-09T08:51:39.883Z,993.98
2016-03-09T08:52:39.886Z,993.98
2016-03-09T08:53:39.904Z,993.95
2016-03-09T08:54:39.938Z,993.94
2016-03-09T08:55:39.924Z,993.89
2016-03-09T08:56:39.943Z,993.87
2016-03-09T08:57:39.961Z,993.9
2016-03-09T08:58:39.963Z,993.83
2016-03-09T08:59:39.982Z,993.83
2016-03-09T09:00:40.001Z,993.86
2016-03-09T09:01:40.004Z,993.81
2016-03-09T09:02:40.021Z,993.82
2016-03-09T09:03:40.024Z,993.76
2016-03-09T09:04:40.042Z,993.75
2016-03-09T09:05:40.062Z,993.77
2016-03-09T09:06:40.064Z,993.79
2016-03-09T09:07:40.082Z,993.76
2016-03-09T09:08:40.100Z,993.72
2016-03-09T09:09:40.103Z,993.7
2016-03-09T09:10:40.121Z,993.73
2016-03-09T09:11:40.124Z,993.72
2016-03-09T09:12:40.143Z,993.69
2016-03-09T09:13:40.161Z,993.66
2016-03-09T09:14:40.164Z,993.75
2016-03-09T09:15:40.182Z,993.72
2016-03-09T09:16:40.200Z,993.67
2016-03-09T09:17:40.203Z,993.7
2016-03-09T09:18:40.221Z,993.68
2016-03-09T09:19:40.239Z,993.73
2016-03-09T09:20:40.242Z,993.67
2016-03-09T09:21:40.260Z,993.63
2016-03-09T09:22:40.278Z,993.7
2016-03-09T09:23:40.281Z,993.64
2016-03-09T09:24:40.299Z,993.67
2016-03-09T09:25:40.318Z,993.63
2016-03-09T09:26:40.321Z,993.59
2016-03-09T09:27:40.339Z,993.58
2016-03-09T09:28:40.357Z,993.54
2016-03-09T09:29:40.360Z,993.54
2016-03-09T09:30:40.378Z,993.57
2016-03-09T09:31:40.397Z,993.53
2016-03-09T09:32:40.399Z,993.56
2016-03-09T09:33:40.402Z,993.51
2016-03-09T09:34:40.435Z,993.44
2016-03-09T09:35:40.438Z,993.52
2016-03-09T09:36:40.457Z,993.47
2016-03-09T09:37:40.460Z,993.45
2016-03-09T09:38:40.478Z,993.44
2016-03-09T09:39:40.496Z,993.43
2016-03-09T09:40:40.499Z,993.44
2016-03-09T09:41:40.517Z,993.42
2016-03-09T09:42:40.536Z,993.47
2016-03-09T09:43:40.539Z,993.48
2016-03-09T09:44:40.573Z,993.5
2016-03-09T09:45:40.575Z,993.49
2016-03-09T09:46:40.578Z,993.44
2016-03-09T09:47:40.595Z,993.47
2016-03-09T09:48:40.614Z,993.43
2016-03-09T09:49:40.633Z,993.48
2016-03-09T09:50:40.635Z,993.46
2016-03-09T09:51:40.639Z,993.39
2016-03-09T09:52:40.656Z,993.43
2016-03-09T09:53:40.675Z,993.41
2016-03-09T09:54:40.693Z,993.38
2016-03-09T09:55:40.711Z,993.41
2016-03-09T09:56:40.714Z,993.42
2016-03-09T09:57:40.732Z,993.44
2016-03-09T09:58:40.735Z,993.43
2016-03-09T09:59:40.752Z,993.44
2016-03-09T10:00:40.772Z,993.37
2016-03-09T10:01:40.774Z,993.44
2016-03-09T10:02:40.793Z,993.49
2016-03-09T10:03:40.811Z,993.44
2016-03-09T10:04:40.829Z,993.42
2016-03-09T10:05:40.832Z,993.38
2016-03-09T10:06:40.855Z,993.4
2016-03-09T10:07:40.859Z,993.37
2016-03-09T10:08:40.878Z,993.43
2016-03-09T10:09:40.880Z,993.38
2016-03-09T10:10:40.899Z,993.38
2016-03-09T10:11:40.917Z,993.37
2016-03-09T10:12:40.920Z,993.37
2016-03-09T10:13:40.938Z,993.34
2016-03-09T10:14:40.957Z,993.44
2016-03-09T10:15:40.960Z,993.39
2016-03-09T10:16:40.978Z,993.33
2016-03-09T10:17:40.996Z,993.29
2016-03-09T10:18:41.013Z,993.3
2016-03-09T10:19:41.016Z,993.3
2016-03-09T10:20:41.035Z,993.24
2016-03-09T10:21:41.038Z,993.23
2016-03-09T10:22:41.056Z,993.29
2016-03-09T10:23:41.075Z,993.28
2016-03-09T10:24:41.093Z,993.19
2016-03-09T10:25:41.111Z,993.2
2016-03-09T10:26:41.129Z,993.2
2016-03-09T10:27:41.132Z,993.19
2016-03-09T10:28:41.151Z,993.09
2016-03-09T10:29:41.153Z,993.16
2016-03-09T10:30:41.171Z,993.12
2016-03-09T10:31:41.190Z,993.11
2016-03-09T10:32:41.208Z,993.14
2016-03-09T10:33:41.211Z,993.08
2016-03-09T10:34:41.229Z,993.1
2016-03-09T10:35:41.247Z,993.05
2016-03-09T10:36:41.250Z,993.01
2016-03-09T10:37:41.268Z,993.04
2016-03-09T10:38:41.287Z,992.97
2016-03-09T10:39:41.289Z,992.93
2016-03-09T10:40:41.308Z,992.96
2016-03-09T10:41:41.325Z,992.97
2016-03-09T10:42:41.328Z,992.92
2016-03-09T10:43:41.347Z,992.95
2016-03-09T10:44:41.365Z,992.93
2016-03-09T10:45:41.369Z,992.88
2016-03-09T10:46:41.386Z,992.85
2016-03-09T10:47:41.405Z,992.87
2016-03-09T10:48:41.407Z,992.85
2016-03-09T10:49:41.426Z,992.86
2016-03-09T10:50:41.444Z,992.82
2016-03-09T10:51:41.462Z,992.86
2016-03-09T10:52:41.465Z,992.77
2016-03-09T10:53:41.482Z,992.79
2016-03-09T10:54:41.502Z,992.79
2016-03-09T10:55:41.504Z,992.82
2016-03-09T10:56:41.523Z,992.78
2016-03-09T10:57:41.541Z,992.79
2016-03-09T10:58:41.544Z,992.74
2016-03-09T10:59:41.562Z,992.79
2016-03-09T11:00:41.580Z,992.74
2016-03-09T11:01:41.599Z,992.78
2016-03-09T11:02:41.617Z,992.77
2016-03-09T11:03:41.620Z,992.74
2016-03-09T11:04:41.637Z,992.73
2016-03-09T11:05:41.640Z,992.64
2016-03-09T11:06:41.659Z,992.6
2016-03-09T11:07:41.677Z,992.63
2016-03-09T11:08:41.680Z,992.67
2016-03-09T11:09:41.714Z,992.64
2016-03-09T11:10:41.717Z,992.66
2016-03-09T11:11:41.719Z,992.69
2016-03-09T11:12:41.738Z,992.7
2016-03-09T11:13:41.756Z,992.69
2016-03-09T11:14:41.774Z,992.62
2016-03-09T11:15:41.808Z,992.63
2016-03-09T11:16:41.794Z,992.66
2016-03-09T11:17:41.813Z,992.58
2016-03-09T11:18:41.832Z,992.63
2016-03-09T11:19:41.850Z,992.63
2016-03-09T11:20:41.853Z,992.56
2016-03-09T11:21:41.855Z,992.58
2016-03-09T11:22:41.873Z,992.56
2016-03-09T11:23:41.892Z,992.47
2016-03-09T11:24:41.910Z,992.57
2016-03-09T11:25:41.913Z,992.52
2016-03-09T11:26:41.931Z,992.52
2016-03-09T11:27:41.949Z,992.53
2016-03-09T11:28:41.968Z,992.45
2016-03-09T11:29:41.971Z,992.54
2016-03-09T11:30:41.989Z,992.55
2016-03-09T11:31:42.007Z,992.52
2016-03-09T11:32:42.026Z,992.53
2016-03-09T11:33:42.028Z,992.49
2016-03-09T11:34:42.047Z,992.5
2016-03-09T11:35:42.065Z,992.43
2016-03-09T11:36:42.068Z,992.46
2016-03-09T11:37:42.086Z,992.48
2016-03-09T11:38:42.103Z,992.49
2016-03-09T11:39:42.123Z,992.48
2016-03-09T11:40:42.125Z,992.4
2016-03-09T11:41:42.144Z,992.46
2016-03-09T11:42:42.162Z,992.46
2016-03-09T11:43:42.180Z,992.33
2016-03-09T11:44:42.183Z,992.34
2016-03-09T11:45:42.201Z,992.34
2016-03-09T11:46:42.220Z,992.32
2016-03-09T11:47:42.238Z,992.32
2016-03-09T11:48:42.241Z,992.31
2016-03-09T11:49:42.258Z,992.37
2016-03-09T11:50:42.277Z,992.31
2016-03-09T11:51:42.280Z,992.34
2016-03-09T11:52:42.298Z,992.33
2016-03-09T11:53:42.317Z,992.27
2016-03-09T11:54:42.335Z,992.27
2016-03-09T11:55:42.338Z,992.24
2016-03-09T11:56:42.356Z,992.22
2016-03-09T11:57:42.374Z,992.2
2016-03-09T11:58:42.392Z,992.21
2016-03-09T11:59:42.395Z,992.22
2016-03-09T12:00:42.412Z,992.22
2016-03-09T12:01:42.432Z,992.15
2016-03-09T12:02:42.450Z,992.21
2016-03-09T12:03:42.468Z,992.24
2016-03-09T12:04:42.471Z,992.22
2016-03-09T12:05:42.489Z,992.19
2016-03-09T12:06:42.508Z,992.24
2016-03-09T12:07:42.526Z,992.21
2016-03-09T12:08:42.529Z,992.24
2016-03-09T12:09:42.547Z,992.18
2016-03-09T12:10:42.564Z,992.21
2016-03-09T12:11:42.567Z,992.2
2016-03-09T12:12:42.633Z,992.2
2016-03-09T12:13:42.605Z,992.14
2016-03-09T12:14:42.623Z,992.22
2016-03-09T12:15:42.641Z,992.21
2016-03-09T12:16:42.691Z,992.21
2016-03-09T12:17:42.663Z,992.2
2016-03-09T12:18:42.696Z,992.16
2016-03-09T12:19:42.699Z,992.15
2016-03-09T12:20:42.702Z,992.15
2016-03-09T12:21:42.719Z,992.12
2016-03-09T12:22:42.738Z,992.06
2016-03-09T12:23:42.757Z,992.09
2016-03-09T12:24:42.775Z,992.05
2016-03-09T12:25:42.778Z,992.11
2016-03-09T12:26:42.796Z,992.08
2016-03-09T12:27:42.814Z,992.04
2016-03-09T12:28:42.833Z,991.99
2016-03-09T12:29:42.835Z,992.04
2016-03-09T12:30:42.854Z,992.01
2016-03-09T12:31:42.871Z,991.96